createdAt,value
2023-04-07T00:01:37.215Z,99.90
2023-04-07T00:04:04.273Z,99.90
2023-04-07T00:06:31.152Z,99.90
2023-04-07T00:08:57.856Z,99.90
2023-04-07T00:11:24.926Z,99.90
2023-04-07T00:13:51.833Z,99.90
2023-04-07T00:16:19.220Z,99.90
2023-04-07T00:18:46.620Z,99.90
2023-04-07T00:21:13.284Z,99.90
2023-04-07T00:23:39.978Z,99.90
2023-04-07T00:26:06.695Z,99.90
2023-04-07T00:28:33.424Z,99.90
2023-04-07T00:31:00.127Z,99.90
2023-04-07T00:33:26.936Z,99.90
2023-04-07T00:35:54.326Z,99.90
2023-04-07T00:38:23.593Z,99.90
2023-04-07T00:40:50.476Z,99.90
2023-04-07T00:45:45.957Z,99.90
2023-04-07T00:48:12.616Z,99.90
2023-04-07T00:50:39.370Z,99.90
2023-04-07T00:53:07.284Z,99.90
2023-04-07T00:55:34.106Z,99.90
2023-04-07T00:58:00.808Z,99.90
2023-04-07T01:00:28.145Z,99.90
2023-04-07T01:02:58.628Z,99.90
2023-04-07T01:05:36.522Z,99.90
2023-04-07T01:08:12.783Z,99.90
2023-04-07T01:10:45.798Z,99.90
2023-04-07T01:13:35.103Z,99.90
2023-04-07T01:16:05.243Z,99.90
2023-04-07T01:18:33.928Z,99.90
2023-04-07T01:21:04.262Z,99.90
2023-04-07T01:23:59.284Z,99.90
2023-04-07T01:26:29.083Z,99.90
2023-04-07T01:29:13.336Z,99.90
2023-04-07T01:31:41.775Z,99.90
2023-04-07T01:34:11.437Z,99.90
2023-04-07T01:36:38.569Z,99.90
2023-04-07T01:39:07.083Z,99.90
2023-04-07T01:41:34.196Z,99.90
2023-04-07T01:44:01.728Z,99.90
2023-04-07T01:46:29.005Z,99.90
2023-04-07T01:48:56.696Z,99.90
2023-04-07T01:51:25.906Z,99.90
2023-04-07T01:53:53.265Z,99.90
2023-04-07T01:56:20.042Z,99.90
2023-04-07T01:58:46.724Z,99.90
2023-04-07T02:01:14.133Z,99.90
2023-04-07T02:03:46.658Z,99.90
2023-04-07T02:06:19.860Z,99.90
2023-04-07T02:08:49.747Z,99.90
2023-04-07T02:11:19.997Z,99.90
2023-04-07T02:13:47.488Z,99.90
2023-04-07T02:16:15.034Z,99.90
2023-04-07T02:18:43.718Z,99.90
2023-04-07T02:21:11.715Z,99.90
2023-04-07T02:23:39.057Z,99.90
2023-04-07T02:26:05.843Z,99.90
2023-04-07T02:28:32.489Z,99.90
2023-04-07T02:30:59.160Z,99.90
2023-04-07T02:33:25.802Z,99.90
2023-04-07T02:35:52.420Z,99.90
2023-04-07T02:40:46.710Z,99.90
2023-04-07T02:43:14.007Z,99.90
2023-04-07T02:45:40.653Z,99.90
2023-04-07T02:48:07.323Z,99.90
2023-04-07T02:50:33.964Z,99.90
2023-04-07T02:53:00.652Z,99.90
2023-04-07T02:55:27.276Z,99.90
2023-04-07T02:58:09.984Z,99.90
2023-04-07T03:00:36.679Z,99.90
2023-04-07T03:03:03.476Z,99.90
2023-04-07T03:05:30.394Z,99.90
2023-04-07T03:07:57.121Z,99.90
2023-04-07T03:10:23.817Z,99.90
2023-04-07T03:12:50.578Z,99.90
2023-04-07T03:15:18.965Z,99.90
2023-04-07T03:17:45.779Z,99.90
2023-04-07T03:20:12.802Z,99.90
2023-04-07T03:22:39.442Z,99.90
2023-04-07T03:25:07.174Z,99.90
2023-04-07T03:27:33.813Z,99.90
2023-04-07T03:30:00.467Z,99.90
2023-04-07T03:32:27.801Z,99.90
2023-04-07T03:34:54.562Z,99.90
2023-04-07T03:37:21.274Z,99.90
2023-04-07T03:39:48.378Z,99.90
2023-04-07T03:42:15.599Z,99.90
2023-04-07T03:44:42.316Z,99.90
2023-04-07T03:47:08.949Z,99.90
2023-04-07T03:49:37.681Z,99.90
2023-04-07T03:52:04.834Z,99.90
2023-04-07T03:54:31.550Z,99.90
2023-04-07T03:56:58.208Z,99.90
2023-04-07T03:59:25.020Z,99.90
2023-04-07T04:01:51.995Z,99.90
2023-04-07T04:04:18.767Z,99.90
2023-04-07T04:06:47.083Z,99.90
2023-04-07T04:09:14.118Z,99.90
2023-04-07T04:11:40.846Z,99.90
2023-04-07T04:14:07.514Z,99.90
2023-04-07T04:16:35.141Z,99.90
2023-04-07T04:19:01.868Z,99.90
2023-04-07T04:21:28.613Z,99.90
2023-04-07T04:23:55.925Z,99.90
2023-04-07T04:28:52.209Z,99.90
2023-04-07T04:31:18.840Z,99.90
2023-04-07T04:33:45.692Z,99.90
2023-04-07T04:36:12.575Z,99.90
2023-04-07T04:38:42.168Z,99.90
2023-04-07T04:41:09.431Z,99.90
2023-04-07T04:43:36.048Z,99.90
2023-04-07T04:46:02.958Z,99.90
2023-04-07T04:50:56.621Z,99.90
2023-04-07T04:53:23.361Z,99.90
2023-04-07T04:55:52.457Z,99.90
2023-04-07T04:58:20.707Z,99.90
2023-04-07T05:00:47.443Z,99.90
2023-04-07T05:03:14.547Z,99.90
2023-04-07T05:05:41.504Z,99.90
2023-04-07T05:08:10.802Z,99.90
2023-04-07T05:10:39.327Z,99.90
2023-04-07T05:13:05.953Z,99.90
2023-04-07T05:15:33.241Z,99.90
2023-04-07T05:17:59.945Z,99.90
2023-04-07T05:20:26.833Z,99.90
2023-04-07T05:22:53.526Z,99.90
2023-04-07T05:25:20.228Z,99.90
2023-04-07T05:27:46.854Z,99.90
2023-04-07T05:30:14.361Z,99.90
2023-04-07T05:32:41.692Z,99.90
2023-04-07T05:35:09.427Z,99.90
2023-04-07T05:37:36.131Z,99.90
2023-04-07T05:40:03.088Z,99.90
2023-04-07T05:42:29.915Z,99.90
2023-04-07T05:44:56.645Z,99.90
2023-04-07T05:47:23.368Z,99.90
2023-04-07T05:49:50.663Z,99.90
2023-04-07T05:52:17.294Z,99.90
2023-04-07T05:54:44.074Z,99.90
2023-04-07T05:57:10.684Z,99.90
2023-04-07T05:59:37.321Z,99.90
2023-04-07T06:02:04.793Z,99.90
2023-04-07T06:04:32.222Z,99.90
2023-04-07T06:06:59.605Z,99.90
2023-04-07T06:09:26.211Z,99.90
2023-04-07T06:11:52.882Z,99.90
2023-04-07T06:14:20.101Z,99.90
2023-04-07T06:16:46.807Z,99.90
2023-04-07T06:19:13.479Z,99.90
2023-04-07T06:21:40.475Z,99.90
2023-04-07T06:24:08.176Z,99.90
2023-04-07T06:26:35.537Z,99.90
2023-04-07T06:29:02.207Z,99.90
2023-04-07T06:31:28.891Z,99.90
2023-04-07T06:33:55.599Z,99.90
2023-04-07T06:36:23.100Z,99.90
2023-04-07T06:38:49.954Z,99.90
2023-04-07T06:41:17.253Z,99.90
2023-04-07T06:43:44.015Z,99.90
2023-04-07T06:46:10.881Z,99.90
2023-04-07T06:48:37.585Z,99.90
2023-04-07T06:51:04.389Z,99.90
2023-04-07T06:53:31.109Z,99.90
2023-04-07T06:56:05.480Z,99.90
2023-04-07T06:58:33.197Z,99.90
2023-04-07T07:01:00.479Z,99.90
2023-04-07T07:03:27.385Z,99.90
2023-04-07T07:05:55.739Z,99.90
2023-04-07T07:08:22.422Z,99.90
2023-04-07T07:10:49.218Z,99.90
2023-04-07T07:13:15.889Z,99.90
2023-04-07T07:15:43.345Z,99.90
2023-04-07T07:20:37.070Z,99.90
2023-04-07T07:23:03.994Z,99.90
2023-04-07T07:25:30.677Z,99.90
2023-04-07T07:27:57.299Z,99.90
2023-04-07T07:30:24.251Z,99.90
2023-04-07T07:32:52.995Z,99.90
2023-04-07T07:35:20.357Z,99.90
2023-04-07T07:37:47.027Z,99.90
2023-04-07T07:40:14.159Z,99.90
2023-04-07T07:42:40.961Z,99.90
2023-04-07T07:45:08.442Z,99.90
2023-04-07T07:47:37.008Z,99.90
2023-04-07T07:50:04.977Z,99.90
2023-04-07T07:52:31.582Z,99.90
2023-04-07T07:54:58.344Z,99.90
2023-04-07T07:57:25.215Z,99.90
2023-04-07T07:59:52.695Z,99.90
2023-04-07T08:02:19.639Z,99.90
2023-04-07T08:04:46.400Z,99.90
2023-04-07T08:07:13.909Z,99.90
2023-04-07T08:09:40.810Z,99.90
2023-04-07T08:12:07.469Z,99.90
2023-04-07T08:14:34.129Z,99.90
2023-04-07T08:17:00.762Z,99.90
2023-04-07T08:19:27.434Z,99.90
2023-04-07T08:21:54.066Z,99.90
2023-04-07T08:24:21.640Z,99.90
2023-04-07T08:26:48.299Z,99.90
2023-04-07T08:29:15.642Z,99.90
2023-04-07T08:31:42.362Z,99.90
2023-04-07T08:34:09.085Z,99.90
2023-04-07T08:36:35.777Z,99.90
2023-04-07T08:39:04.895Z,99.90
2023-04-07T08:41:37.537Z,99.90
2023-04-07T08:44:04.750Z,99.90
2023-04-07T08:46:32.923Z,99.90
2023-04-07T08:49:01.156Z,99.90
2023-04-07T08:51:29.373Z,99.90
2023-04-07T08:54:10.779Z,99.90
2023-04-07T08:56:40.152Z,99.90
2023-04-07T08:59:07.998Z,99.90
2023-04-07T09:01:35.650Z,97.70
2023-04-07T09:04:02.858Z,98.20
2023-04-07T09:06:31.234Z,98.20
2023-04-07T09:08:57.899Z,97.20
2023-04-07T09:11:25.420Z,97.40
2023-04-07T09:13:52.820Z,97.10
2023-04-07T09:16:19.714Z,97.40
2023-04-07T09:18:46.657Z,97.70
2023-04-07T09:21:15.579Z,98.10
2023-04-07T09:23:45.003Z,98.00
2023-04-07T09:26:22.232Z,98.30
2023-04-07T09:28:52.327Z,98.30
2023-04-07T09:31:20.703Z,98.40
2023-04-07T09:33:48.067Z,99.10
2023-04-07T09:36:15.025Z,99.20
2023-04-07T09:38:43.306Z,99.20
2023-04-07T09:41:11.281Z,99.20
2023-04-07T09:43:39.779Z,99.60
2023-04-07T09:46:11.320Z,99.10
2023-04-07T09:48:39.618Z,99.50
2023-04-07T09:51:08.199Z,99.90
2023-04-07T09:53:45.560Z,99.90
2023-04-07T09:56:12.786Z,99.90
2023-04-07T09:58:40.482Z,99.90
2023-04-07T10:01:07.991Z,99.90
2023-04-07T10:03:34.907Z,99.80
2023-04-07T10:06:02.713Z,99.90
2023-04-07T10:08:30.976Z,99.70
2023-04-07T10:10:58.507Z,99.90
2023-04-07T10:13:26.114Z,99.90
2023-04-07T10:15:52.829Z,99.90
2023-04-07T10:18:20.830Z,99.90
2023-04-07T10:20:49.398Z,99.90
2023-04-07T10:23:21.767Z,99.90
2023-04-07T10:25:50.596Z,99.90
2023-04-07T10:28:18.702Z,99.90
2023-04-07T10:30:47.137Z,99.90
2023-04-07T10:33:13.728Z,99.90
2023-04-07T10:36:05.657Z,99.90
2023-04-07T10:38:33.252Z,99.90
2023-04-07T10:40:59.816Z,99.90
2023-04-07T10:43:37.874Z,99.90
2023-04-07T10:46:04.667Z,99.90
2023-04-07T10:48:32.828Z,99.90
2023-04-07T10:51:14.727Z,99.90
2023-04-07T10:54:18.042Z,99.90
2023-04-07T10:57:12.354Z,99.90
2023-04-07T10:59:59.288Z,99.90
2023-04-07T11:02:35.504Z,99.90
2023-04-07T11:05:22.435Z,99.90
2023-04-07T11:07:51.679Z,99.90
2023-04-07T11:13:04.798Z,99.90
2023-04-07T11:15:31.782Z,99.90
2023-04-07T11:18:10.798Z,99.90
2023-04-07T11:20:46.281Z,99.90
2023-04-07T11:23:13.356Z,99.90
2023-04-07T11:25:43.475Z,99.90
2023-04-07T11:28:12.281Z,99.90
2023-04-07T11:30:44.325Z,99.90
2023-04-07T11:33:15.506Z,99.90
2023-04-07T11:35:48.371Z,99.90
2023-04-07T11:38:15.862Z,99.90
2023-04-07T11:40:42.542Z,99.90
2023-04-07T11:43:17.289Z,99.90
2023-04-07T11:45:44.198Z,99.90
2023-04-07T11:48:25.998Z,99.90
2023-04-07T11:50:52.643Z,99.90
2023-04-07T11:53:26.500Z,99.90
2023-04-07T11:56:00.228Z,99.90
2023-04-07T11:58:27.613Z,99.90
2023-04-07T12:00:55.183Z,99.90
2023-04-07T12:03:21.994Z,99.90
2023-04-07T12:05:48.808Z,99.90
2023-04-07T12:08:15.902Z,99.90
2023-04-07T12:10:43.149Z,99.90
2023-04-07T12:13:10.186Z,99.90
2023-04-07T12:15:37.414Z,99.90
2023-04-07T12:18:04.291Z,99.90
2023-04-07T12:20:31.193Z,99.90
2023-04-07T12:22:59.290Z,99.90
2023-04-07T12:25:26.829Z,99.90
2023-04-07T12:27:53.740Z,99.90
2023-04-07T12:30:20.585Z,99.90
2023-04-07T12:32:48.334Z,99.90
2023-04-07T12:35:15.205Z,99.90
2023-04-07T12:37:41.789Z,99.90
2023-04-07T12:40:09.559Z,99.90
2023-04-07T12:42:36.223Z,99.90
2023-04-07T12:45:03.124Z,99.90
2023-04-07T12:47:30.428Z,99.90
2023-04-07T12:49:57.719Z,99.90
2023-04-07T12:52:24.442Z,99.90
2023-04-07T12:54:51.632Z,99.90
2023-04-07T12:57:18.255Z,99.90
2023-04-07T12:59:45.071Z,99.90
2023-04-07T13:02:13.025Z,99.90
2023-04-07T13:04:42.795Z,99.90
2023-04-07T13:07:12.257Z,99.90
2023-04-07T13:09:39.069Z,99.90
2023-04-07T13:12:05.754Z,99.90
2023-04-07T13:14:32.449Z,99.90
2023-04-07T13:16:59.134Z,99.90
2023-04-07T13:19:25.861Z,99.90
2023-04-07T13:21:52.498Z,99.90
2023-04-07T13:24:21.197Z,99.90
2023-04-07T13:26:48.347Z,99.90
2023-04-07T13:29:15.833Z,99.90
2023-04-07T13:31:42.484Z,99.90
2023-04-07T13:34:09.173Z,99.90
2023-04-07T13:36:35.815Z,99.90
2023-04-07T13:39:02.769Z,99.90
2023-04-07T13:41:30.138Z,99.90
2023-04-07T13:43:57.691Z,99.90
2023-04-07T13:46:28.027Z,99.90
2023-04-07T13:48:55.594Z,99.90
2023-04-07T13:51:22.455Z,99.90
2023-04-07T13:53:49.211Z,99.90
2023-04-07T13:56:15.959Z,99.90
2023-04-07T13:58:43.347Z,99.90
2023-04-07T14:01:10.613Z,99.90
2023-04-07T14:03:37.440Z,99.90
2023-04-07T14:06:04.493Z,99.90
2023-04-07T14:08:31.135Z,99.90
2023-04-07T14:10:57.821Z,99.90
2023-04-07T14:13:24.564Z,99.90
2023-04-07T14:15:52.541Z,99.90
2023-04-07T14:18:19.242Z,99.90
2023-04-07T14:20:46.278Z,99.90
2023-04-07T14:23:14.020Z,99.90
2023-04-07T14:25:43.426Z,99.90
2023-04-07T14:28:10.065Z,99.90
2023-04-07T14:30:38.079Z,99.90
2023-04-07T14:33:11.585Z,99.90
2023-04-07T14:35:38.482Z,99.90
2023-04-07T14:38:05.759Z,99.90
2023-04-07T14:40:32.445Z,99.90
2023-04-07T14:43:07.183Z,99.90
2023-04-07T14:45:34.981Z,99.90
2023-04-07T14:48:02.009Z,99.90
2023-04-07T14:50:31.940Z,99.90
2023-04-07T14:52:58.583Z,99.90
2023-04-07T14:55:25.581Z,99.90
2023-04-07T14:57:52.229Z,99.90
2023-04-07T15:00:19.016Z,99.90
2023-04-07T15:02:45.826Z,99.90
2023-04-07T15:05:12.763Z,99.90
2023-04-07T15:07:40.095Z,99.90
2023-04-07T15:10:07.576Z,99.90
2023-04-07T15:12:34.303Z,99.90
2023-04-07T15:15:00.993Z,99.90
2023-04-07T15:17:40.006Z,99.90
2023-04-07T15:20:12.060Z,99.90
2023-04-07T15:22:39.361Z,99.90
2023-04-07T15:25:06.439Z,99.90
2023-04-07T15:27:33.137Z,99.90
2023-04-07T15:30:00.165Z,99.90
2023-04-07T15:32:26.957Z,99.90
2023-04-07T15:34:53.598Z,99.90
2023-04-07T15:37:20.245Z,99.90
2023-04-07T15:39:48.770Z,99.90
2023-04-07T15:42:15.440Z,99.90
2023-04-07T15:44:42.105Z,99.90
2023-04-07T15:47:09.216Z,99.90
2023-04-07T15:49:38.183Z,99.90
2023-04-07T15:52:05.734Z,99.90
2023-04-07T15:54:32.799Z,99.90
2023-04-07T15:57:00.374Z,99.90
2023-04-07T15:59:29.993Z,99.90
2023-04-07T16:01:56.734Z,99.90
2023-04-07T16:04:23.607Z,99.90
2023-04-07T16:06:50.309Z,99.90
2023-04-07T16:09:17.058Z,99.90
2023-04-07T16:11:43.854Z,99.90
2023-04-07T16:14:11.178Z,99.90
2023-04-07T16:16:40.086Z,99.90
2023-04-07T16:19:07.052Z,99.90
2023-04-07T16:21:34.287Z,99.90
2023-04-07T16:24:00.912Z,99.90
2023-04-07T16:26:27.605Z,99.90
2023-04-07T16:28:54.242Z,99.90
2023-04-07T16:31:21.610Z,99.90
2023-04-07T16:33:50.334Z,99.90
2023-04-07T16:36:17.305Z,99.90
2023-04-07T16:38:44.032Z,99.90
2023-04-07T16:41:10.669Z,99.90
2023-04-07T16:43:37.303Z,99.90
2023-04-07T16:46:05.576Z,99.90
2023-04-07T16:48:32.922Z,99.90
2023-04-07T16:50:59.715Z,99.90
2023-04-07T16:53:26.356Z,99.90
2023-04-07T16:55:53.025Z,99.90
2023-04-07T16:58:19.812Z,99.90
2023-04-07T17:00:46.567Z,99.90
2023-04-07T17:03:13.900Z,99.90
2023-04-07T17:05:41.348Z,99.90
2023-04-07T17:08:08.495Z,99.90
2023-04-07T17:10:35.145Z,99.90
2023-04-07T17:13:01.778Z,99.90
2023-04-07T17:15:28.433Z,99.90
2023-04-07T17:17:55.139Z,99.90
2023-04-07T17:20:22.802Z,99.90
2023-04-07T17:22:50.538Z,99.90
2023-04-07T17:25:18.969Z,99.90
2023-04-07T17:27:47.175Z,99.90
2023-04-07T17:30:14.020Z,99.90
2023-04-07T17:32:40.685Z,99.90
2023-04-07T17:35:08.262Z,99.90
2023-04-07T17:37:34.966Z,99.90
2023-04-07T17:40:02.493Z,99.90
2023-04-07T17:42:29.179Z,99.90
2023-04-07T17:44:56.052Z,99.90
2023-04-07T17:47:22.669Z,99.90
2023-04-07T17:49:49.362Z,99.90
2023-04-07T17:52:16.075Z,99.90
2023-04-07T17:54:42.711Z,99.90
2023-04-07T17:57:10.760Z,99.90
2023-04-07T17:59:37.383Z,99.90
2023-04-07T18:02:08.201Z,99.90
2023-04-07T18:04:36.076Z,99.90
2023-04-07T18:07:03.095Z,99.90
2023-04-07T18:09:29.841Z,99.90
2023-04-07T18:11:56.522Z,99.90
2023-04-07T18:14:23.809Z,99.90
2023-04-07T18:16:50.519Z,99.90
2023-04-07T18:19:17.822Z,99.90
2023-04-07T18:21:44.944Z,99.90
2023-04-07T18:24:11.642Z,99.90
2023-04-07T18:26:38.337Z,99.90
2023-04-07T18:29:07.630Z,99.90
2023-04-07T18:31:37.056Z,99.90
2023-04-07T18:34:03.812Z,99.90
2023-04-07T18:36:30.477Z,99.90
2023-04-07T18:38:57.157Z,99.90
2023-04-07T18:41:23.833Z,99.90
2023-04-07T18:43:51.331Z,99.90
2023-04-07T18:46:18.305Z,99.90
2023-04-07T18:48:45.605Z,99.90
2023-04-07T18:51:12.363Z,99.90
2023-04-07T18:53:39.304Z,99.90
2023-04-07T18:56:06.008Z,99.90
2023-04-07T18:58:32.787Z,99.90
2023-04-07T19:00:59.434Z,99.90
2023-04-07T19:03:26.523Z,99.90
2023-04-07T19:05:55.329Z,99.90
2023-04-07T19:08:22.141Z,99.90
2023-04-07T19:10:50.991Z,99.90
2023-04-07T19:13:18.745Z,99.90
2023-04-07T19:15:45.756Z,99.90
2023-04-07T19:18:12.872Z,99.90
2023-04-07T19:20:39.837Z,99.90
2023-04-07T19:23:07.367Z,99.90
2023-04-07T19:25:34.430Z,99.90
2023-04-07T19:28:01.258Z,99.90
2023-04-07T19:30:27.897Z,99.90
2023-04-07T19:32:55.782Z,99.90
2023-04-07T19:35:22.772Z,99.90
2023-04-07T19:37:49.811Z,99.90
2023-04-07T19:40:17.250Z,99.90
2023-04-07T19:42:44.179Z,99.90
2023-04-07T19:45:11.286Z,99.90
2023-04-07T19:47:38.317Z,99.90
2023-04-07T19:50:06.394Z,99.90
2023-04-07T19:52:33.181Z,99.90
2023-04-07T19:55:00.649Z,99.90
2023-04-07T19:57:30.262Z,99.90
2023-04-07T19:59:57.167Z,99.90
2023-04-07T20:02:24.003Z,99.90
2023-04-07T20:04:50.950Z,99.90
2023-04-07T20:07:17.624Z,99.90
2023-04-07T20:09:44.288Z,99.90
2023-04-07T20:12:10.933Z,99.90
2023-04-07T20:14:38.297Z,99.90
2023-04-07T20:17:05.013Z,99.90
2023-04-07T20:19:31.764Z,99.90
2023-04-07T20:21:58.471Z,99.90
2023-04-07T20:24:25.299Z,99.90
2023-04-07T20:26:51.956Z,99.90
2023-04-07T20:29:21.007Z,99.90
2023-04-07T20:31:49.500Z,99.90
2023-04-07T20:34:16.230Z,99.90
2023-04-07T20:36:42.974Z,99.90
2023-04-07T20:39:09.646Z,99.90
2023-04-07T20:41:36.548Z,99.90
2023-04-07T20:44:03.624Z,99.90
2023-04-07T20:46:30.558Z,99.90
2023-04-07T20:48:57.953Z,99.90
2023-04-07T20:51:24.675Z,99.90
2023-04-07T20:53:51.509Z,99.90
2023-04-07T20:56:18.230Z,99.90
2023-04-07T20:58:45.046Z,99.90
2023-04-07T21:01:11.776Z,99.90
2023-04-07T21:03:38.769Z,99.90
2023-04-07T21:06:06.404Z,99.90
2023-04-07T21:08:33.084Z,99.90
2023-04-07T21:10:59.985Z,99.90
2023-04-07T21:13:28.473Z,99.90
2023-04-07T21:15:56.571Z,99.90
2023-04-07T21:18:23.224Z,99.90
2023-04-07T21:20:49.915Z,99.90
2023-04-07T21:23:18.045Z,99.90
2023-04-07T21:25:44.797Z,99.90
2023-04-07T21:28:11.504Z,99.90
2023-04-07T21:30:41.224Z,99.90
2023-04-07T21:33:08.220Z,99.90
2023-04-07T21:35:35.280Z,99.90
2023-04-07T21:38:01.982Z,99.90
2023-04-07T21:40:29.279Z,99.90
2023-04-07T21:42:56.865Z,99.90
2023-04-07T21:45:23.621Z,99.90
2023-04-07T21:47:50.472Z,99.90
2023-04-07T21:50:18.113Z,99.90
2023-04-07T21:52:44.859Z,99.90
2023-04-07T21:55:11.639Z,99.90
2023-04-07T21:57:39.332Z,99.90
2023-04-07T22:00:07.390Z,99.90
2023-04-07T22:02:35.240Z,99.90
2023-04-07T22:05:02.190Z,99.90
2023-04-07T22:07:28.881Z,99.90
2023-04-07T22:09:56.807Z,99.90
2023-04-07T22:12:23.517Z,99.90
2023-04-07T22:14:50.880Z,99.90
2023-04-07T22:17:17.607Z,99.90
2023-04-07T22:19:44.286Z,99.90
2023-04-07T22:22:10.919Z,99.90
2023-04-07T22:24:37.559Z,99.90
2023-04-07T22:27:04.186Z,99.90
2023-04-07T22:29:30.879Z,99.90
2023-04-07T22:31:58.223Z,99.90
2023-04-07T22:34:24.933Z,99.90
2023-04-07T22:36:51.630Z,99.90
2023-04-07T22:39:18.512Z,99.90
2023-04-07T22:41:45.274Z,99.90
2023-04-07T22:44:11.898Z,99.90
2023-04-07T22:46:38.655Z,99.90
2023-04-07T22:49:08.840Z,99.90
2023-04-07T22:51:36.166Z,99.90
2023-04-07T22:54:03.018Z,99.90
2023-04-07T22:56:30.327Z,99.90
2023-04-07T22:59:04.354Z,99.90
2023-04-07T23:01:31.408Z,99.90
2023-04-07T23:03:58.198Z,99.90
2023-04-07T23:06:27.777Z,99.90
2023-04-07T23:08:54.907Z,99.90
2023-04-07T23:11:22.507Z,99.90
2023-04-07T23:13:49.443Z,99.90
2023-04-07T23:16:16.212Z,99.90
2023-04-07T23:18:43.058Z,99.90
2023-04-07T23:21:09.885Z,99.90
2023-04-07T23:23:38.255Z,99.90
2023-04-07T23:26:05.969Z,99.90
2023-04-07T23:28:32.723Z,99.90
2023-04-07T23:30:59.411Z,99.90
2023-04-07T23:33:26.126Z,99.90
2023-04-07T23:35:52.816Z,99.90
2023-04-07T23:38:19.474Z,99.90
2023-04-07T23:40:47.557Z,99.90
2023-04-07T23:43:14.242Z,99.90
2023-04-07T23:45:40.882Z,99.90
2023-04-07T23:48:07.564Z,99.90
2023-04-07T23:50:34.399Z,99.90
2023-04-07T23:53:02.214Z,99.90
2023-04-07T23:55:28.956Z,99.90
2023-04-07T23:57:56.457Z,99.90
